sensor_id;sensor_type;location;lat;lon;timestamp;temperature;humidity
20722;DHT22;10522;52.198;9.890;2022-12-29T00:02:10;9.90;99.90
20722;DHT22;10522;52.198;9.890;2022-12-29T00:04:35;9.70;99.90
20722;DHT22;10522;52.198;9.890;2022-12-29T00:07:01;9.70;99.90
20722;DHT22;10522;52.198;9.890;2022-12-29T00:09:30;9.70;99.90
20722;DHT22;10522;52.198;9.890;2022-12-29T00:11:56;9.90;99.90
20722;DHT22;10522;52.198;9.890;2022-12-29T00:14:21;9.80;99.90
20722;DHT22;10522;52.198;9.890;2022-12-29T00:17:05;9.80;99.90
20722;DHT22;10522;52.198;9.890;2022-12-29T00:19:31;9.80;99.90
20722;DHT22;10522;52.198;9.890;2022-12-29T00:22:16;9.80;99.90
20722;DHT22;10522;52.198;9.890;2022-12-29T00:25:00;9.80;99.90
20722;DHT22;10522;52.198;9.890;2022-12-29T00:27:44;9.80;99.90
20722;DHT22;10522;52.198;9.890;2022-12-29T00:30:28;9.80;99.90
20722;DHT22;10522;52.198;9.890;2022-12-29T00:33:18;9.80;99.90
20722;DHT22;10522;52.198;9.890;2022-12-29T00:36:25;9.90;99.90
20722;DHT22;10522;52.198;9.890;2022-12-29T00:38:57;10.00;99.90
20722;DHT22;10522;52.198;9.890;2022-12-29T00:41:42;10.00;99.90
20722;DHT22;10522;52.198;9.890;2022-12-29T00:44:26;10.10;99.90
20722;DHT22;10522;52.198;9.890;2022-12-29T00:46:52;10.20;99.90
20722;DHT22;10522;52.198;9.890;2022-12-29T00:49:17;10.20;99.90
20722;DHT22;10522;52.198;9.890;2022-12-29T00:51:57;10.00;99.90
20722;DHT22;10522;52.198;9.890;2022-12-29T00:54:23;9.90;99.90
20722;DHT22;10522;52.198;9.890;2022-12-29T00:56:50;10.00;99.90
20722;DHT22;10522;52.198;9.890;2022-12-29T00:59:16;9.90;99.90
20722;DHT22;10522;52.198;9.890;2022-12-29T01:01:42;10.00;99.90
20722;DHT22;10522;52.198;9.890;2022-12-29T01:04:09;10.10;99.90
20722;DHT22;10522;52.198;9.890;2022-12-29T01:06:36;10.00;99.90
20722;DHT22;10522;52.198;9.890;2022-12-29T01:09:03;10.00;99.90
20722;DHT22;10522;52.198;9.890;2022-12-29T01:11:47;10.00;99.90
20722;DHT22;10522;52.198;9.890;2022-12-29T01:14:13;9.90;99.90
20722;DHT22;10522;52.198;9.890;2022-12-29T01:16:39;10.00;99.90
20722;DHT22;10522;52.198;9.890;2022-12-29T01:19:06;10.00;99.90
20722;DHT22;10522;52.198;9.890;2022-12-29T01:21:32;9.80;99.90
20722;DHT22;10522;52.198;9.890;2022-12-29T01:23:58;9.90;99.90
20722;DHT22;10522;52.198;9.890;2022-12-29T01:26:23;9.90;99.90
20722;DHT22;10522;52.198;9.890;2022-12-29T01:28:49;9.80;99.90
20722;DHT22;10522;52.198;9.890;2022-12-29T01:31:15;9.90;99.90
20722;DHT22;10522;52.198;9.890;2022-12-29T01:33:42;10.00;99.90
20722;DHT22;10522;52.198;9.890;2022-12-29T01:36:10;9.80;99.90
20722;DHT22;10522;52.198;9.890;2022-12-29T01:38:37;9.90;99.90
20722;DHT22;10522;52.198;9.890;2022-12-29T01:41:04;9.90;99.90
20722;DHT22;10522;52.198;9.890;2022-12-29T01:46:35;9.80;99.90
20722;DHT22;10522;52.198;9.890;2022-12-29T01:51:43;9.80;99.90
20722;DHT22;10522;52.198;9.890;2022-12-29T01:54:16;9.80;99.90
20722;DHT22;10522;52.198;9.890;2022-12-29T01:56:43;9.70;99.90
20722;DHT22;10522;52.198;9.890;2022-12-29T01:59:12;9.80;99.90
20722;DHT22;10522;52.198;9.890;2022-12-29T02:01:40;9.70;99.90
20722;DHT22;10522;52.198;9.890;2022-12-29T02:04:07;9.70;99.90
20722;DHT22;10522;52.198;9.890;2022-12-29T02:06:41;9.90;99.90
20722;DHT22;10522;52.198;9.890;2022-12-29T02:09:09;10.00;99.90
20722;DHT22;10522;52.198;9.890;2022-12-29T02:11:35;10.00;99.90
20722;DHT22;10522;52.198;9.890;2022-12-29T02:14:01;10.10;99.90
20722;DHT22;10522;52.198;9.890;2022-12-29T02:16:40;10.00;99.90
20722;DHT22;10522;52.198;9.890;2022-12-29T02:22:00;10.00;99.90
20722;DHT22;10522;52.198;9.890;2022-12-29T02:35:36;10.30;99.90
20722;DHT22;10522;52.198;9.890;2022-12-29T02:40:56;10.40;99.90
20722;DHT22;10522;52.198;9.890;2022-12-29T02:43:47;10.50;99.90
20722;DHT22;10522;52.198;9.890;2022-12-29T02:46:43;10.50;99.90
20722;DHT22;10522;52.198;9.890;2022-12-29T02:49:22;10.50;99.90
20722;DHT22;10522;52.198;9.890;2022-12-29T02:52:06;10.40;99.90
20722;DHT22;10522;52.198;9.890;2022-12-29T02:54:33;10.40;99.90
20722;DHT22;10522;52.198;9.890;2022-12-29T02:57:26;10.40;99.90
20722;DHT22;10522;52.198;9.890;2022-12-29T03:13:08;10.50;99.90
20722;DHT22;10522;52.198;9.890;2022-12-29T03:16:23;10.60;99.90
20722;DHT22;10522;52.198;9.890;2022-12-29T03:18:56;10.60;99.90
20722;DHT22;10522;52.198;9.890;2022-12-29T03:21:38;10.50;99.90
20722;DHT22;10522;52.198;9.890;2022-12-29T03:24:27;10.40;99.90
20722;DHT22;10522;52.198;9.890;2022-12-29T03:26:57;10.40;99.90
20722;DHT22;10522;52.198;9.890;2022-12-29T03:29:25;10.30;99.90
20722;DHT22;10522;52.198;9.890;2022-12-29T03:31:54;10.20;99.90
20722;DHT22;10522;52.198;9.890;2022-12-29T03:34:21;10.20;99.90
20722;DHT22;10522;52.198;9.890;2022-12-29T03:36:53;10.20;99.90
20722;DHT22;10522;52.198;9.890;2022-12-29T03:39:22;10.30;99.90
20722;DHT22;10522;52.198;9.890;2022-12-29T03:41:51;10.30;99.90
20722;DHT22;10522;52.198;9.890;2022-12-29T03:44:19;10.30;99.90
20722;DHT22;10522;52.198;9.890;2022-12-29T03:46:45;10.30;99.90
20722;DHT22;10522;52.198;9.890;2022-12-29T03:49:10;10.10;99.90
20722;DHT22;10522;52.198;9.890;2022-12-29T03:51:36;10.20;99.90
20722;DHT22;10522;52.198;9.890;2022-12-29T03:54:02;10.10;99.90
20722;DHT22;10522;52.198;9.890;2022-12-29T03:56:28;10.10;99.90
20722;DHT22;10522;52.198;9.890;2022-12-29T03:58:53;10.10;99.90
20722;DHT22;10522;52.198;9.890;2022-12-29T04:01:19;10.10;99.90
20722;DHT22;10522;52.198;9.890;2022-12-29T04:03:45;10.20;99.90
20722;DHT22;10522;52.198;9.890;2022-12-29T04:06:10;10.30;99.90
20722;DHT22;10522;52.198;9.890;2022-12-29T04:08:36;10.30;99.90
20722;DHT22;10522;52.198;9.890;2022-12-29T04:11:01;10.40;99.90
20722;DHT22;10522;52.198;9.890;2022-12-29T04:13:27;10.40;99.90
20722;DHT22;10522;52.198;9.890;2022-12-29T04:15:52;10.50;99.90
20722;DHT22;10522;52.198;9.890;2022-12-29T04:18:18;10.40;99.90
20722;DHT22;10522;52.198;9.890;2022-12-29T04:20:44;10.50;99.90
20722;DHT22;10522;52.198;9.890;2022-12-29T04:23:38;10.70;99.90
20722;DHT22;10522;52.198;9.890;2022-12-29T04:26:04;10.60;99.90
20722;DHT22;10522;52.198;9.890;2022-12-29T04:28:33;10.70;99.90
20722;DHT22;10522;52.198;9.890;2022-12-29T04:30:58;10.60;99.90
20722;DHT22;10522;52.198;9.890;2022-12-29T04:33:24;10.80;99.90
20722;DHT22;10522;52.198;9.890;2022-12-29T04:35:50;10.80;99.90
20722;DHT22;10522;52.198;9.890;2022-12-29T04:38:18;10.70;99.90
20722;DHT22;10522;52.198;9.890;2022-12-29T04:40:44;10.70;99.90
20722;DHT22;10522;52.198;9.890;2022-12-29T04:43:10;10.80;99.90
20722;DHT22;10522;52.198;9.890;2022-12-29T04:45:35;10.80;99.90
20722;DHT22;10522;52.198;9.890;2022-12-29T04:48:01;10.80;99.90
20722;DHT22;10522;52.198;9.890;2022-12-29T04:50:27;10.90;99.90
20722;DHT22;10522;52.198;9.890;2022-12-29T04:52:53;11.00;99.90
20722;DHT22;10522;52.198;9.890;2022-12-29T04:55:18;10.90;99.90
20722;DHT22;10522;52.198;9.890;2022-12-29T04:57:44;11.10;99.90
20722;DHT22;10522;52.198;9.890;2022-12-29T05:00:10;11.20;99.90
20722;DHT22;10522;52.198;9.890;2022-12-29T05:02:37;11.10;99.90
20722;DHT22;10522;52.198;9.890;2022-12-29T05:05:03;11.20;99.90
20722;DHT22;10522;52.198;9.890;2022-12-29T05:07:28;11.20;99.90
20722;DHT22;10522;52.198;9.890;2022-12-29T05:09:54;11.10;99.90
20722;DHT22;10522;52.198;9.890;2022-12-29T05:12:19;11.20;99.90
20722;DHT22;10522;52.198;9.890;2022-12-29T05:14:45;11.20;99.90
20722;DHT22;10522;52.198;9.890;2022-12-29T05:17:11;11.30;99.90
20722;DHT22;10522;52.198;9.890;2022-12-29T05:19:36;11.20;99.90
20722;DHT22;10522;52.198;9.890;2022-12-29T05:22:04;11.20;99.90
20722;DHT22;10522;52.198;9.890;2022-12-29T05:24:29;11.30;99.90
20722;DHT22;10522;52.198;9.890;2022-12-29T05:26:55;11.40;99.90
20722;DHT22;10522;52.198;9.890;2022-12-29T05:29:20;11.20;99.90
20722;DHT22;10522;52.198;9.890;2022-12-29T05:31:46;11.50;99.90
20722;DHT22;10522;52.198;9.890;2022-12-29T05:34:12;11.30;99.90
20722;DHT22;10522;52.198;9.890;2022-12-29T05:36:37;11.30;99.90
20722;DHT22;10522;52.198;9.890;2022-12-29T05:39:03;11.30;99.90
20722;DHT22;10522;52.198;9.890;2022-12-29T05:41:29;11.20;99.90
20722;DHT22;10522;52.198;9.890;2022-12-29T05:43:54;11.20;99.90
20722;DHT22;10522;52.198;9.890;2022-12-29T05:46:20;11.20;99.90
20722;DHT22;10522;52.198;9.890;2022-12-29T05:48:46;11.10;99.90
20722;DHT22;10522;52.198;9.890;2022-12-29T05:51:11;11.00;99.90
20722;DHT22;10522;52.198;9.890;2022-12-29T05:53:37;11.00;99.90
20722;DHT22;10522;52.198;9.890;2022-12-29T05:56:03;10.90;99.90
20722;DHT22;10522;52.198;9.890;2022-12-29T05:58:28;10.90;99.90
20722;DHT22;10522;52.198;9.890;2022-12-29T06:00:54;10.90;99.90
20722;DHT22;10522;52.198;9.890;2022-12-29T06:03:20;10.80;99.90
20722;DHT22;10522;52.198;9.890;2022-12-29T06:05:45;10.80;99.90
20722;DHT22;10522;52.198;9.890;2022-12-29T06:08:11;10.80;99.90
20722;DHT22;10522;52.198;9.890;2022-12-29T06:10:37;10.70;99.90
20722;DHT22;10522;52.198;9.890;2022-12-29T06:13:03;10.80;99.90
20722;DHT22;10522;52.198;9.890;2022-12-29T06:15:31;10.70;99.90
20722;DHT22;10522;52.198;9.890;2022-12-29T06:17:57;10.70;99.90
20722;DHT22;10522;52.198;9.890;2022-12-29T06:20:22;10.70;99.90
20722;DHT22;10522;52.198;9.890;2022-12-29T06:22:48;10.70;99.90
20722;DHT22;10522;52.198;9.890;2022-12-29T06:25:15;10.80;99.90
20722;DHT22;10522;52.198;9.890;2022-12-29T06:27:41;10.80;99.90
20722;DHT22;10522;52.198;9.890;2022-12-29T06:30:07;10.80;99.90
20722;DHT22;10522;52.198;9.890;2022-12-29T06:32:34;10.90;99.90
20722;DHT22;10522;52.198;9.890;2022-12-29T06:35:00;11.00;99.90
20722;DHT22;10522;52.198;9.890;2022-12-29T06:37:25;11.00;99.90
20722;DHT22;10522;52.198;9.890;2022-12-29T06:39:51;11.10;99.90
20722;DHT22;10522;52.198;9.890;2022-12-29T06:42:16;11.10;99.90
20722;DHT22;10522;52.198;9.890;2022-12-29T06:44:42;11.20;99.90
20722;DHT22;10522;52.198;9.890;2022-12-29T06:47:08;11.10;99.90
20722;DHT22;10522;52.198;9.890;2022-12-29T06:49:33;11.20;99.90
20722;DHT22;10522;52.198;9.890;2022-12-29T06:51:59;11.20;99.90
20722;DHT22;10522;52.198;9.890;2022-12-29T06:54:26;11.10;99.90
20722;DHT22;10522;52.198;9.890;2022-12-29T06:56:51;11.30;99.90
20722;DHT22;10522;52.198;9.890;2022-12-29T06:59:17;11.20;99.90
20722;DHT22;10522;52.198;9.890;2022-12-29T07:01:43;11.10;99.90
20722;DHT22;10522;52.198;9.890;2022-12-29T07:04:08;11.30;99.90
20722;DHT22;10522;52.198;9.890;2022-12-29T07:06:34;11.20;99.90
20722;DHT22;10522;52.198;9.890;2022-12-29T07:08:59;11.30;99.90
20722;DHT22;10522;52.198;9.890;2022-12-29T07:11:25;11.20;99.90
20722;DHT22;10522;52.198;9.890;2022-12-29T07:13:51;11.40;99.90
20722;DHT22;10522;52.198;9.890;2022-12-29T07:16:17;11.50;99.90
20722;DHT22;10522;52.198;9.890;2022-12-29T07:18:43;11.70;99.90
20722;DHT22;10522;52.198;9.890;2022-12-29T07:21:08;11.60;99.90
20722;DHT22;10522;52.198;9.890;2022-12-29T07:23:34;11.40;99.90
20722;DHT22;10522;52.198;9.890;2022-12-29T07:26:01;11.60;99.90
20722;DHT22;10522;52.198;9.890;2022-12-29T07:28:27;11.50;99.90
20722;DHT22;10522;52.198;9.890;2022-12-29T07:30:54;11.40;99.90
20722;DHT22;10522;52.198;9.890;2022-12-29T07:33:19;11.50;99.90
20722;DHT22;10522;52.198;9.890;2022-12-29T07:35:45;11.50;99.90
20722;DHT22;10522;52.198;9.890;2022-12-29T07:38:11;11.70;99.90
20722;DHT22;10522;52.198;9.890;2022-12-29T07:40:37;11.50;99.90
20722;DHT22;10522;52.198;9.890;2022-12-29T07:43:02;11.50;99.90
20722;DHT22;10522;52.198;9.890;2022-12-29T07:45:29;11.30;99.90
20722;DHT22;10522;52.198;9.890;2022-12-29T07:47:55;11.10;99.90
20722;DHT22;10522;52.198;9.890;2022-12-29T07:50:20;11.10;99.90
20722;DHT22;10522;52.198;9.890;2022-12-29T07:52:46;11.10;99.90
20722;DHT22;10522;52.198;9.890;2022-12-29T07:55:16;11.10;99.90
20722;DHT22;10522;52.198;9.890;2022-12-29T07:57:42;11.20;99.90
20722;DHT22;10522;52.198;9.890;2022-12-29T08:00:08;11.30;99.90
20722;DHT22;10522;52.198;9.890;2022-12-29T08:02:35;11.20;99.90
20722;DHT22;10522;52.198;9.890;2022-12-29T08:05:00;11.20;99.90
20722;DHT22;10522;52.198;9.890;2022-12-29T08:07:26;10.90;99.90
20722;DHT22;10522;52.198;9.890;2022-12-29T08:09:52;10.70;99.90
20722;DHT22;10522;52.198;9.890;2022-12-29T08:12:17;10.50;99.90
20722;DHT22;10522;52.198;9.890;2022-12-29T08:14:43;10.50;99.90
20722;DHT22;10522;52.198;9.890;2022-12-29T08:17:08;10.40;99.90
20722;DHT22;10522;52.198;9.890;2022-12-29T08:19:35;10.40;99.90
20722;DHT22;10522;52.198;9.890;2022-12-29T08:22:01;10.40;99.90
20722;DHT22;10522;52.198;9.890;2022-12-29T08:24:27;10.30;99.90
20722;DHT22;10522;52.198;9.890;2022-12-29T08:26:52;10.30;99.90
20722;DHT22;10522;52.198;9.890;2022-12-29T08:29:18;10.30;99.90
20722;DHT22;10522;52.198;9.890;2022-12-29T08:31:44;10.20;99.90
20722;DHT22;10522;52.198;9.890;2022-12-29T08:34:10;10.10;99.90
20722;DHT22;10522;52.198;9.890;2022-12-29T08:36:36;10.20;99.90
20722;DHT22;10522;52.198;9.890;2022-12-29T08:39:02;10.30;99.90
20722;DHT22;10522;52.198;9.890;2022-12-29T08:41:27;10.60;99.90
20722;DHT22;10522;52.198;9.890;2022-12-29T08:43:53;10.70;99.90
20722;DHT22;10522;52.198;9.890;2022-12-29T08:46:18;10.80;99.90
20722;DHT22;10522;52.198;9.890;2022-12-29T08:48:44;10.90;99.90
20722;DHT22;10522;52.198;9.890;2022-12-29T08:51:10;10.80;99.90
20722;DHT22;10522;52.198;9.890;2022-12-29T08:53:36;10.50;99.90
20722;DHT22;10522;52.198;9.890;2022-12-29T08:56:02;10.30;99.90
20722;DHT22;10522;52.198;9.890;2022-12-29T08:58:27;10.10;99.90
20722;DHT22;10522;52.198;9.890;2022-12-29T09:00:55;9.90;99.90
20722;DHT22;10522;52.198;9.890;2022-12-29T09:03:22;9.70;99.90
20722;DHT22;10522;52.198;9.890;2022-12-29T09:05:52;9.80;99.90
20722;DHT22;10522;52.198;9.890;2022-12-29T09:08:18;9.80;99.90
20722;DHT22;10522;52.198;9.890;2022-12-29T09:10:45;9.80;99.90
20722;DHT22;10522;52.198;9.890;2022-12-29T09:13:11;9.80;99.90
20722;DHT22;10522;52.198;9.890;2022-12-29T09:15:38;9.90;99.90
20722;DHT22;10522;52.198;9.890;2022-12-29T09:18:04;9.90;99.90
20722;DHT22;10522;52.198;9.890;2022-12-29T09:20:29;9.90;99.90
20722;DHT22;10522;52.198;9.890;2022-12-29T09:22:55;10.00;99.90
20722;DHT22;10522;52.198;9.890;2022-12-29T09:25:21;10.00;99.90
20722;DHT22;10522;52.198;9.890;2022-12-29T09:27:52;9.90;99.90
20722;DHT22;10522;52.198;9.890;2022-12-29T09:30:20;9.90;99.90
20722;DHT22;10522;52.198;9.890;2022-12-29T09:32:47;10.00;99.90
20722;DHT22;10522;52.198;9.890;2022-12-29T09:35:13;9.90;99.90
20722;DHT22;10522;52.198;9.890;2022-12-29T09:37:39;9.90;99.90
20722;DHT22;10522;52.198;9.890;2022-12-29T09:40:07;10.00;99.90
20722;DHT22;10522;52.198;9.890;2022-12-29T09:42:48;9.90;99.90
20722;DHT22;10522;52.198;9.890;2022-12-29T09:45:29;9.90;99.90
20722;DHT22;10522;52.198;9.890;2022-12-29T09:47:57;9.80;99.90
20722;DHT22;10522;52.198;9.890;2022-12-29T09:50:26;9.90;99.90
20722;DHT22;10522;52.198;9.890;2022-12-29T09:52:55;9.90;99.90
20722;DHT22;10522;52.198;9.890;2022-12-29T09:55:30;10.00;99.90
20722;DHT22;10522;52.198;9.890;2022-12-29T09:58:14;10.00;99.90
20722;DHT22;10522;52.198;9.890;2022-12-29T10:00:58;10.10;99.90
20722;DHT22;10522;52.198;9.890;2022-12-29T10:03:48;10.20;99.90
20722;DHT22;10522;52.198;9.890;2022-12-29T10:09:06;10.50;99.90
20722;DHT22;10522;52.198;9.890;2022-12-29T10:14:28;10.80;99.90
20722;DHT22;10522;52.198;9.890;2022-12-29T10:17:10;10.80;99.90
20722;DHT22;10522;52.198;9.890;2022-12-29T10:22:59;11.00;99.90
20722;DHT22;10522;52.198;9.890;2022-12-29T10:25:27;10.90;99.90
20722;DHT22;10522;52.198;9.890;2022-12-29T10:27:56;10.90;99.90
20722;DHT22;10522;52.198;9.890;2022-12-29T10:30:24;11.00;99.90
20722;DHT22;10522;52.198;9.890;2022-12-29T10:32:58;11.10;99.90
20722;DHT22;10522;52.198;9.890;2022-12-29T10:35:32;11.30;99.90
20722;DHT22;10522;52.198;9.890;2022-12-29T10:38:05;11.10;99.90
20722;DHT22;10522;52.198;9.890;2022-12-29T10:40:47;11.10;99.90
20722;DHT22;10522;52.198;9.890;2022-12-29T10:43:29;11.20;99.90
20722;DHT22;10522;52.198;9.890;2022-12-29T10:45:58;11.20;99.90
20722;DHT22;10522;52.198;9.890;2022-12-29T10:48:32;11.20;99.90
20722;DHT22;10522;52.198;9.890;2022-12-29T10:51:01;11.20;99.90
20722;DHT22;10522;52.198;9.890;2022-12-29T10:53:45;11.10;99.90
20722;DHT22;10522;52.198;9.890;2022-12-29T10:56:35;11.10;99.90
20722;DHT22;10522;52.198;9.890;2022-12-29T11:01:54;11.00;99.90
20722;DHT22;10522;52.198;9.890;2022-12-29T11:06:56;11.10;99.90
20722;DHT22;10522;52.198;9.890;2022-12-29T11:09:27;11.20;99.90
20722;DHT22;10522;52.198;9.890;2022-12-29T11:11:53;11.20;99.90
20722;DHT22;10522;52.198;9.890;2022-12-29T11:14:30;11.30;99.90
20722;DHT22;10522;52.198;9.890;2022-12-29T11:17:01;11.30;99.90
20722;DHT22;10522;52.198;9.890;2022-12-29T11:19:34;11.30;99.90
20722;DHT22;10522;52.198;9.890;2022-12-29T11:24:44;11.30;99.90
20722;DHT22;10522;52.198;9.890;2022-12-29T11:27:16;11.40;99.90
20722;DHT22;10522;52.198;9.890;2022-12-29T11:29:43;11.40;99.90
20722;DHT22;10522;52.198;9.890;2022-12-29T11:34:44;11.40;99.90
20722;DHT22;10522;52.198;9.890;2022-12-29T11:37:19;11.30;99.90
20722;DHT22;10522;52.198;9.890;2022-12-29T11:39:55;11.30;99.90
20722;DHT22;10522;52.198;9.890;2022-12-29T11:42:35;11.30;99.90
20722;DHT22;10522;52.198;9.890;2022-12-29T11:45:15;11.10;99.90
20722;DHT22;10522;52.198;9.890;2022-12-29T11:47:43;11.00;99.90
20722;DHT22;10522;52.198;9.890;2022-12-29T11:50:21;11.00;99.90
20722;DHT22;10522;52.198;9.890;2022-12-29T11:52:49;11.00;99.90
20722;DHT22;10522;52.198;9.890;2022-12-29T11:55:21;10.90;99.90
20722;DHT22;10522;52.198;9.890;2022-12-29T11:57:49;10.90;99.90
20722;DHT22;10522;52.198;9.890;2022-12-29T12:00:23;11.00;99.90
20722;DHT22;10522;52.198;9.890;2022-12-29T12:03:03;11.10;99.90
20722;DHT22;10522;52.198;9.890;2022-12-29T12:11:09;11.20;99.90
20722;DHT22;10522;52.198;9.890;2022-12-29T12:13:58;11.20;99.90
20722;DHT22;10522;52.198;9.890;2022-12-29T12:16:35;11.20;99.90
20722;DHT22;10522;52.198;9.890;2022-12-29T12:19:34;11.10;99.90
20722;DHT22;10522;52.198;9.890;2022-12-29T12:22:10;11.10;99.90
20722;DHT22;10522;52.198;9.890;2022-12-29T12:24:54;11.10;99.90
20722;DHT22;10522;52.198;9.890;2022-12-29T12:27:28;11.10;99.90
20722;DHT22;10522;52.198;9.890;2022-12-29T12:30:15;11.00;99.90
20722;DHT22;10522;52.198;9.890;2022-12-29T12:35:24;11.10;99.90
20722;DHT22;10522;52.198;9.890;2022-12-29T12:40:53;11.00;99.90
20722;DHT22;10522;52.198;9.890;2022-12-29T12:56:56;11.00;99.90
20722;DHT22;10522;52.198;9.890;2022-12-29T13:00:02;11.10;99.90
20722;DHT22;10522;52.198;9.890;2022-12-29T13:19:18;11.00;99.90
20722;DHT22;10522;52.198;9.890;2022-12-29T13:38:11;10.90;99.90
20722;DHT22;10522;52.198;9.890;2022-12-29T13:40:41;10.90;99.90
20722;DHT22;10522;52.198;9.890;2022-12-29T13:43:09;11.00;99.90
20722;DHT22;10522;52.198;9.890;2022-12-29T13:45:35;11.20;99.90
20722;DHT22;10522;52.198;9.890;2022-12-29T13:48:21;11.10;99.90
20722;DHT22;10522;52.198;9.890;2022-12-29T13:50:55;11.00;99.90
20722;DHT22;10522;52.198;9.890;2022-12-29T13:53:35;10.90;99.90
20722;DHT22;10522;52.198;9.890;2022-12-29T13:56:15;11.00;99.90
20722;DHT22;10522;52.198;9.890;2022-12-29T13:58:56;11.00;99.90
20722;DHT22;10522;52.198;9.890;2022-12-29T14:01:39;10.90;99.90
20722;DHT22;10522;52.198;9.890;2022-12-29T14:04:13;11.00;99.90
20722;DHT22;10522;52.198;9.890;2022-12-29T14:06:39;10.90;99.90
20722;DHT22;10522;52.198;9.890;2022-12-29T14:15:05;10.90;99.90
20722;DHT22;10522;52.198;9.890;2022-12-29T14:17:32;10.80;99.90
20722;DHT22;10522;52.198;9.890;2022-12-29T14:19:58;11.00;99.90
20722;DHT22;10522;52.198;9.890;2022-12-29T14:22:26;10.90;99.90
20722;DHT22;10522;52.198;9.890;2022-12-29T14:24:52;10.70;99.90
20722;DHT22;10522;52.198;9.890;2022-12-29T14:29:48;10.70;99.90
20722;DHT22;10522;52.198;9.890;2022-12-29T14:34:45;10.70;99.90
20722;DHT22;10522;52.198;9.890;2022-12-29T14:37:40;10.70;99.90
20722;DHT22;10522;52.198;9.890;2022-12-29T14:40:18;10.60;99.90
20722;DHT22;10522;52.198;9.890;2022-12-29T14:42:46;10.70;99.90
20722;DHT22;10522;52.198;9.890;2022-12-29T14:47:44;10.80;99.90
20722;DHT22;10522;52.198;9.890;2022-12-29T14:50:21;10.70;99.90
20722;DHT22;10522;52.198;9.890;2022-12-29T14:53:02;10.70;99.90
20722;DHT22;10522;52.198;9.890;2022-12-29T14:55:47;10.60;99.90
20722;DHT22;10522;52.198;9.890;2022-12-29T14:58:27;10.50;99.90
20722;DHT22;10522;52.198;9.890;2022-12-29T15:00:53;10.50;99.90
20722;DHT22;10522;52.198;9.890;2022-12-29T15:03:32;10.60;99.90
20722;DHT22;10522;52.198;9.890;2022-12-29T15:06:08;10.50;99.90
20722;DHT22;10522;52.198;9.890;2022-12-29T15:08:53;10.50;99.90
20722;DHT22;10522;52.198;9.890;2022-12-29T15:11:20;10.50;99.90
20722;DHT22;10522;52.198;9.890;2022-12-29T15:13:47;10.40;99.90
20722;DHT22;10522;52.198;9.890;2022-12-29T15:16:33;10.30;99.90
20722;DHT22;10522;52.198;9.890;2022-12-29T15:19:02;10.40;99.90
20722;DHT22;10522;52.198;9.890;2022-12-29T15:21:32;10.30;99.90
20722;DHT22;10522;52.198;9.890;2022-12-29T15:23:58;10.40;99.90
20722;DHT22;10522;52.198;9.890;2022-12-29T15:26:37;10.30;99.90
20722;DHT22;10522;52.198;9.890;2022-12-29T15:29:03;10.30;99.90
20722;DHT22;10522;52.198;9.890;2022-12-29T15:31:29;10.30;99.90
20722;DHT22;10522;52.198;9.890;2022-12-29T15:34:02;10.20;99.90
20722;DHT22;10522;52.198;9.890;2022-12-29T15:36:29;10.20;99.90
20722;DHT22;10522;52.198;9.890;2022-12-29T15:39:27;10.10;99.90
20722;DHT22;10522;52.198;9.890;2022-12-29T15:41:56;10.00;99.90
20722;DHT22;10522;52.198;9.890;2022-12-29T15:44:44;10.00;99.90
20722;DHT22;10522;52.198;9.890;2022-12-29T15:47:16;10.00;99.90
20722;DHT22;10522;52.198;9.890;2022-12-29T15:49:44;10.00;99.90
20722;DHT22;10522;52.198;9.890;2022-12-29T15:52:10;10.00;99.90
20722;DHT22;10522;52.198;9.890;2022-12-29T15:54:36;9.90;99.90
20722;DHT22;10522;52.198;9.890;2022-12-29T15:57:03;9.80;99.90
20722;DHT22;10522;52.198;9.890;2022-12-29T15:59:32;9.50;99.90
20722;DHT22;10522;52.198;9.890;2022-12-29T16:01:59;9.20;99.90
20722;DHT22;10522;52.198;9.890;2022-12-29T16:04:29;9.10;99.90
20722;DHT22;10522;52.198;9.890;2022-12-29T16:07:01;8.90;99.90
20722;DHT22;10522;52.198;9.890;2022-12-29T16:09:33;8.80;99.90
20722;DHT22;10522;52.198;9.890;2022-12-29T16:12:03;8.80;99.90
20722;DHT22;10522;52.198;9.890;2022-12-29T16:14:42;8.80;99.90
20722;DHT22;10522;52.198;9.890;2022-12-29T16:17:13;9.00;99.90
20722;DHT22;10522;52.198;9.890;2022-12-29T16:19:42;9.10;99.90
20722;DHT22;10522;52.198;9.890;2022-12-29T16:22:19;9.00;99.90
20722;DHT22;10522;52.198;9.890;2022-12-29T16:24:48;9.00;99.90
20722;DHT22;10522;52.198;9.890;2022-12-29T16:27:21;9.10;99.90
20722;DHT22;10522;52.198;9.890;2022-12-29T16:29:51;9.20;99.90
20722;DHT22;10522;52.198;9.890;2022-12-29T16:32:25;9.40;99.90
20722;DHT22;10522;52.198;9.890;2022-12-29T16:35:10;9.50;99.90
20722;DHT22;10522;52.198;9.890;2022-12-29T16:37:36;9.50;99.90
20722;DHT22;10522;52.198;9.890;2022-12-29T16:42:48;9.50;99.90
20722;DHT22;10522;52.198;9.890;2022-12-29T16:50:27;9.50;99.90
20722;DHT22;10522;52.198;9.890;2022-12-29T16:52:53;9.40;99.90
20722;DHT22;10522;52.198;9.890;2022-12-29T16:55:19;9.40;99.90
20722;DHT22;10522;52.198;9.890;2022-12-29T16:57:47;9.40;99.90
20722;DHT22;10522;52.198;9.890;2022-12-29T17:00:23;9.30;99.90
20722;DHT22;10522;52.198;9.890;2022-12-29T17:02:50;9.30;99.90
20722;DHT22;10522;52.198;9.890;2022-12-29T17:05:18;9.30;99.90
20722;DHT22;10522;52.198;9.890;2022-12-29T17:07:45;9.30;99.90
20722;DHT22;10522;52.198;9.890;2022-12-29T17:10:11;9.40;99.90
20722;DHT22;10522;52.198;9.890;2022-12-29T17:12:38;9.30;99.90
20722;DHT22;10522;52.198;9.890;2022-12-29T17:15:06;9.10;99.90
20722;DHT22;10522;52.198;9.890;2022-12-29T17:17:43;9.20;99.90
20722;DHT22;10522;52.198;9.890;2022-12-29T17:22:35;9.20;99.90
20722;DHT22;10522;52.198;9.890;2022-12-29T17:25:01;9.20;99.90
20722;DHT22;10522;52.198;9.890;2022-12-29T17:27:35;9.20;99.90
20722;DHT22;10522;52.198;9.890;2022-12-29T17:30:13;9.10;99.90
20722;DHT22;10522;52.198;9.890;2022-12-29T17:32:45;9.10;99.90
20722;DHT22;10522;52.198;9.890;2022-12-29T17:35:16;9.00;99.90
20722;DHT22;10522;52.198;9.890;2022-12-29T17:37:43;9.00;99.90
20722;DHT22;10522;52.198;9.890;2022-12-29T17:40:26;9.10;99.90
20722;DHT22;10522;52.198;9.890;2022-12-29T17:42:53;9.00;99.90
20722;DHT22;10522;52.198;9.890;2022-12-29T17:45:31;9.10;99.90
20722;DHT22;10522;52.198;9.890;2022-12-29T17:47:57;9.20;99.90
20722;DHT22;10522;52.198;9.890;2022-12-29T17:50:28;9.10;99.90
20722;DHT22;10522;52.198;9.890;2022-12-29T17:53:00;9.10;99.90
20722;DHT22;10522;52.198;9.890;2022-12-29T17:55:27;9.20;99.90
20722;DHT22;10522;52.198;9.890;2022-12-29T17:57:53;9.30;99.90
20722;DHT22;10522;52.198;9.890;2022-12-29T18:00:21;9.30;99.90
20722;DHT22;10522;52.198;9.890;2022-12-29T18:02:48;9.30;99.90
20722;DHT22;10522;52.198;9.890;2022-12-29T18:05:22;9.30;99.90
20722;DHT22;10522;52.198;9.890;2022-12-29T18:07:50;9.40;99.90
20722;DHT22;10522;52.198;9.890;2022-12-29T18:10:17;9.30;99.90
20722;DHT22;10522;52.198;9.890;2022-12-29T18:12:45;9.50;99.90